createdAt,value
2017-08-01T00:00:53.346Z,1003.17
2017-08-01T00:01:53.371Z,1003.13
2017-08-01T00:02:53.399Z,1003.14
2017-08-01T00:03:53.428Z,1003.18
2017-08-01T00:04:53.454Z,1003.2
2017-08-01T00:05:53.479Z,1003.25
2017-08-01T00:06:53.505Z,1003.26
2017-08-01T00:07:53.533Z,1003.27
2017-08-01T00:08:53.557Z,1003.23
2017-08-01T00:09:53.586Z,1003.25
2017-08-01T00:10:53.614Z,1003.25
2017-08-01T00:11:53.640Z,1003.3
2017-08-01T00:12:53.664Z,1003.27
2017-08-01T00:13:53.693Z,1003.22
2017-08-01T00:14:53.721Z,1003.16
2017-08-01T00:15:53.747Z,1003.15
2017-08-01T00:16:53.773Z,1003.08
2017-08-01T00:17:53.798Z,1003.04
2017-08-01T00:18:53.826Z,1003.11
2017-08-01T00:19:53.855Z,1003.12
2017-08-01T00:20:53.879Z,1003.09
2017-08-01T00:21:53.905Z,1003.13
2017-08-01T00:22:53.933Z,1003.1
2017-08-01T00:23:53.959Z,1003.08
2017-08-01T00:24:53.986Z,1003.11
2017-08-01T00:25:54.013Z,1003.1
2017-08-01T00:26:54.038Z,1003.08
2017-08-01T00:27:54.065Z,1003.09
2017-08-01T00:28:54.089Z,1003.07
2017-08-01T00:29:54.117Z,1003.05
2017-08-01T00:30:54.144Z,1002.95
2017-08-01T00:31:54.167Z,1002.9
2017-08-01T00:32:54.194Z,1002.84
2017-08-01T00:33:54.222Z,1002.82
2017-08-01T00:34:54.246Z,1002.87
2017-08-01T00:35:54.275Z,1002.92
2017-08-01T00:36:54.301Z,1002.93
2017-08-01T00:37:54.327Z,1002.96
2017-08-01T00:38:54.351Z,1002.97
2017-08-01T00:39:54.381Z,1002.96
2017-08-01T00:40:54.406Z,1002.93
2017-08-01T00:41:54.431Z,1002.92
2017-08-01T00:42:54.457Z,1002.86
2017-08-01T00:43:54.485Z,1002.85
2017-08-01T00:44:54.511Z,1002.84
2017-08-01T00:45:54.538Z,1002.81
2017-08-01T00:46:54.564Z,1002.79
2017-08-01T00:47:54.591Z,1002.78
2017-08-01T00:48:54.616Z,1002.77
2017-08-01T00:49:54.642Z,1002.77
2017-08-01T00:50:54.668Z,1002.8
2017-08-01T00:51:54.695Z,1002.88
2017-08-01T00:52:54.721Z,1002.9
2017-08-01T00:53:54.748Z,1002.93
2017-08-01T00:54:54.774Z,1002.92
2017-08-01T00:55:54.804Z,1002.9
2017-08-01T00:56:54.826Z,1002.91
2017-08-01T00:57:54.854Z,1002.98
2017-08-01T00:58:54.880Z,1003
2017-08-01T00:59:54.906Z,1003.03
2017-08-01T01:00:54.935Z,1003.01
2017-08-01T01:01:54.958Z,1003.05
2017-08-01T01:02:54.986Z,1003.04
2017-08-01T01:03:55.019Z,1003.06
2017-08-01T01:04:55.036Z,1003.06
2017-08-01T01:05:55.064Z,1003
2017-08-01T01:06:55.091Z,1003.02
2017-08-01T01:07:55.115Z,1003.01
2017-08-01T01:08:55.142Z,1002.98
2017-08-01T01:09:55.169Z,1002.96
2017-08-01T01:10:55.193Z,1002.91
2017-08-01T01:11:55.220Z,1002.87
2017-08-01T01:12:55.246Z,1002.8
2017-08-01T01:13:55.272Z,1002.8
2017-08-01T01:14:55.300Z,1002.76
2017-08-01T01:15:55.327Z,1002.79
2017-08-01T01:16:55.351Z,1002.78
2017-08-01T01:17:55.380Z,1002.91
2017-08-01T01:18:55.405Z,1002.96
2017-08-01T01:19:55.431Z,1003.08
2017-08-01T01:20:55.458Z,1003.06
2017-08-01T01:21:55.480Z,1003.05
2017-08-01T01:22:55.508Z,1003.02
2017-08-01T01:23:55.533Z,1003.03
2017-08-01T01:24:55.561Z,1003.02
2017-08-01T01:25:55.586Z,1002.96
2017-08-01T01:26:55.612Z,1002.91
2017-08-01T01:27:55.694Z,1002.8
2017-08-01T01:28:55.664Z,1002.72
2017-08-01T01:29:55.690Z,1002.73
2017-08-01T01:30:55.716Z,1002.77
2017-08-01T01:31:55.744Z,1002.83
2017-08-01T01:32:55.767Z,1002.86
2017-08-01T01:33:55.792Z,1002.89
2017-08-01T01:34:55.818Z,1002.92
2017-08-01T01:35:55.845Z,1002.95
2017-08-01T01:36:55.870Z,1002.98
2017-08-01T01:37:55.898Z,1003.04
2017-08-01T01:38:55.923Z,1003.09
2017-08-01T01:39:55.949Z,1003.15
2017-08-01T01:40:55.975Z,1003.19
2017-08-01T01:41:56.000Z,1003.17
2017-08-01T01:42:56.030Z,1003.2
2017-08-01T01:43:56.051Z,1003.17
2017-08-01T01:44:56.078Z,1003.12
2017-08-01T01:45:56.106Z,1003.13
2017-08-01T01:46:56.130Z,1003.11
2017-08-01T01:47:56.155Z,1003.16
2017-08-01T01:48:56.182Z,1003.16
2017-08-01T01:49:56.209Z,1003.16
2017-08-01T01:50:56.233Z,1003.2
2017-08-01T01:51:56.259Z,1003.21
2017-08-01T01:52:56.285Z,1003.28
2017-08-01T01:53:56.310Z,1003.32
2017-08-01T01:54:56.335Z,1003.4
2017-08-01T01:55:56.406Z,1003.5
2017-08-01T01:56:56.406Z,1003.51
2017-08-01T01:57:56.416Z,1003.6
2017-08-01T01:58:56.441Z,1003.61
2017-08-01T01:59:56.465Z,1003.6
2017-08-01T02:00:56.492Z,1003.57
2017-08-01T02:01:56.517Z,1003.55
2017-08-01T02:02:56.545Z,1003.46
2017-08-01T02:03:56.567Z,1003.37
2017-08-01T02:04:56.596Z,1003.34
2017-08-01T02:05:56.619Z,1003.29
2017-08-01T02:06:56.645Z,1003.31
2017-08-01T02:07:56.672Z,1003.36
2017-08-01T02:08:56.748Z,1003.47
2017-08-01T02:09:56.721Z,1003.57
2017-08-01T02:10:56.750Z,1003.64
2017-08-01T02:11:56.775Z,1003.75
2017-08-01T02:12:56.800Z,1003.78
2017-08-01T02:13:56.826Z,1003.77
2017-08-01T02:14:56.852Z,1003.77
2017-08-01T02:15:56.877Z,1003.8
2017-08-01T02:16:56.902Z,1003.86
2017-08-01T02:17:56.927Z,1003.9
2017-08-01T02:18:56.955Z,1003.98
2017-08-01T02:19:56.978Z,1004.06
2017-08-01T02:20:57.003Z,1004.15
2017-08-01T02:21:57.029Z,1004.23
2017-08-01T02:22:57.056Z,1004.28
2017-08-01T02:23:57.084Z,1004.33
2017-08-01T02:24:57.111Z,1004.45
2017-08-01T02:25:57.133Z,1004.6
2017-08-01T02:26:57.160Z,1004.69
2017-08-01T02:27:57.182Z,1004.76
2017-08-01T02:28:57.211Z,1004.8
2017-08-01T02:29:57.237Z,1004.74
2017-08-01T02:30:57.263Z,1004.57
2017-08-01T02:31:57.288Z,1004.33
2017-08-01T02:32:57.312Z,1004.2
2017-08-01T02:33:57.337Z,1004.11
2017-08-01T02:34:57.364Z,1003.99
2017-08-01T02:35:57.391Z,1003.73
2017-08-01T02:36:57.416Z,1003.53
2017-08-01T02:37:57.442Z,1003.43
2017-08-01T02:38:57.467Z,1003.45
2017-08-01T02:39:57.492Z,1003.56
2017-08-01T02:40:57.517Z,1003.59
2017-08-01T02:41:57.552Z,1003.38
2017-08-01T02:42:57.570Z,1003.22
2017-08-01T02:43:57.594Z,1003.03
2017-08-01T02:44:57.623Z,1002.71
2017-08-01T02:45:57.644Z,1002.13
2017-08-01T02:46:57.673Z,1001.86
2017-08-01T02:47:57.696Z,1002.12
2017-08-01T02:48:57.722Z,1002.25
2017-08-01T02:49:57.746Z,1002.06
2017-08-01T02:50:57.775Z,1001.83
2017-08-01T02:51:57.797Z,1001.8
2017-08-01T02:52:57.823Z,1001.92
2017-08-01T02:53:57.851Z,1001.96
2017-08-01T02:54:57.876Z,1001.98
2017-08-01T02:55:57.902Z,1001.9
2017-08-01T02:56:57.926Z,1001.84
2017-08-01T02:57:57.954Z,1001.92
2017-08-01T02:58:57.980Z,1001.95
2017-08-01T02:59:58.002Z,1002.06
2017-08-01T03:00:58.028Z,1002.12
2017-08-01T03:01:58.053Z,1002.23
2017-08-01T03:02:58.078Z,1002.25
2017-08-01T03:03:58.106Z,1002.27
2017-08-01T03:04:58.129Z,1002.22
2017-08-01T03:05:58.158Z,1002.24
2017-08-01T03:06:58.182Z,1002.24
2017-08-01T03:07:58.205Z,1002.26
2017-08-01T03:08:58.231Z,1002.29
2017-08-01T03:09:58.256Z,1002.37
2017-08-01T03:10:58.284Z,1002.4
2017-08-01T03:11:58.309Z,1002.43
2017-08-01T03:12:58.332Z,1002.46
2017-08-01T03:13:58.358Z,1002.5
2017-08-01T03:14:58.386Z,1002.52
2017-08-01T03:15:58.433Z,1002.54
2017-08-01T03:16:58.435Z,1002.53
2017-08-01T03:17:58.460Z,1002.53
2017-08-01T03:18:58.485Z,1002.53
2017-08-01T03:19:58.510Z,1002.53
2017-08-01T03:20:58.538Z,1002.54
2017-08-01T03:21:58.564Z,1002.51
2017-08-01T03:22:58.586Z,1002.52
2017-08-01T03:23:58.614Z,1002.39
2017-08-01T03:24:58.638Z,1002.34
2017-08-01T03:25:58.662Z,1002.33
2017-08-01T03:26:58.690Z,1002.41
2017-08-01T03:27:58.713Z,1002.51
2017-08-01T03:28:58.739Z,1002.64
2017-08-01T03:29:58.764Z,1002.78
2017-08-01T03:30:58.790Z,1003.01
2017-08-01T03:31:58.816Z,1003.23
2017-08-01T03:32:58.842Z,1003.41
2017-08-01T03:33:58.867Z,1003.65
2017-08-01T03:34:58.891Z,1003.93
2017-08-01T03:35:58.917Z,1004.13
2017-08-01T03:36:58.943Z,1004.34
2017-08-01T03:37:58.966Z,1004.43
2017-08-01T03:38:58.993Z,1004.42
2017-08-01T03:39:59.019Z,1004.41
2017-08-01T03:40:59.044Z,1004.39
2017-08-01T03:41:59.070Z,1004.35
2017-08-01T03:42:59.094Z,1004.28
2017-08-01T03:43:59.119Z,1004.17
2017-08-01T03:44:59.144Z,1004.05
2017-08-01T03:45:59.173Z,1004.08
2017-08-01T03:46:59.292Z,1004.06
2017-08-01T03:47:59.316Z,1004.05
2017-08-01T03:48:59.246Z,1004.12
2017-08-01T03:49:59.314Z,1004.22
2017-08-01T03:50:59.297Z,1004.33
2017-08-01T03:51:59.321Z,1004.47
2017-08-01T03:52:59.346Z,1004.56
2017-08-01T03:53:59.372Z,1004.67
2017-08-01T03:54:59.480Z,1004.7
2017-08-01T03:55:59.477Z,1004.71
2017-08-01T03:56:59.480Z,1004.7
2017-08-01T03:57:59.485Z,1004.61
2017-08-01T03:58:59.500Z,1004.68
2017-08-01T03:59:59.521Z,1004.79
2017-08-01T04:00:59.547Z,1004.93
2017-08-01T04:01:59.576Z,1005.07
2017-08-01T04:02:59.598Z,1005.23
2017-08-01T04:03:59.624Z,1005.48
2017-08-01T04:04:59.652Z,1005.72
2017-08-01T04:05:59.674Z,1006.03
2017-08-01T04:06:59.698Z,1006.28
2017-08-01T04:07:59.724Z,1006.39
2017-08-01T04:08:59.751Z,1006.49
2017-08-01T04:09:59.776Z,1006.51
2017-08-01T04:10:59.801Z,1006.49
2017-08-01T04:11:59.826Z,1006.57
2017-08-01T04:12:59.852Z,1006.7
2017-08-01T04:13:59.875Z,1006.76
2017-08-01T04:14:59.902Z,1006.93
2017-08-01T04:15:59.927Z,1007.13
2017-08-01T04:16:59.952Z,1007.39
2017-08-01T04:17:59.977Z,1007.72
2017-08-01T04:19:00.002Z,1008.07
2017-08-01T04:20:00.031Z,1008.36
2017-08-01T04:21:00.055Z,1008.46
2017-08-01T04:22:00.312Z,1008.71
2017-08-01T04:23:00.126Z,1008.92
2017-08-01T04:24:00.127Z,1009.13
2017-08-01T04:25:00.152Z,1009.1
2017-08-01T04:26:00.179Z,1008.92
2017-08-01T04:27:00.204Z,1008.87
2017-08-01T04:28:00.230Z,1008.69
2017-08-01T04:29:00.253Z,1008.61
2017-08-01T04:30:00.280Z,1008.46
2017-08-01T04:31:00.305Z,1008.49
2017-08-01T04:32:00.328Z,1008.39
2017-08-01T04:33:00.352Z,1008.43
2017-08-01T04:34:00.378Z,1008.34
2017-08-01T04:35:00.412Z,1008.11
2017-08-01T04:36:00.429Z,1008.05
2017-08-01T04:37:00.455Z,1007.95
2017-08-01T04:38:00.482Z,1008
2017-08-01T04:39:00.505Z,1008
2017-08-01T04:40:00.548Z,1007.82
2017-08-01T04:41:00.555Z,1007.59
2017-08-01T04:42:00.581Z,1007.24
2017-08-01T04:43:00.603Z,1007.01
2017-08-01T04:44:00.634Z,1006.81
2017-08-01T04:45:00.654Z,1006.65
2017-08-01T04:46:00.682Z,1006.44
2017-08-01T04:47:00.703Z,1006.27
2017-08-01T04:48:00.730Z,1006.12
2017-08-01T04:49:00.753Z,1006.06
2017-08-01T04:50:00.779Z,1006.12
2017-08-01T04:51:00.804Z,1006.22
2017-08-01T04:52:00.836Z,1006.39
2017-08-01T04:53:00.858Z,1006.56
2017-08-01T04:54:00.879Z,1006.7
2017-08-01T04:55:00.904Z,1006.92
2017-08-01T04:56:00.930Z,1007.03
2017-08-01T04:57:00.955Z,1007.04
2017-08-01T04:58:00.980Z,1006.95
2017-08-01T04:59:01.004Z,1006.83
2017-08-01T05:00:01.046Z,1006.73
2017-08-01T05:01:01.060Z,1006.67
2017-08-01T05:02:01.082Z,1006.56
2017-08-01T05:03:01.104Z,1006.37
2017-08-01T05:04:01.240Z,1006.09
2017-08-01T05:05:01.156Z,1005.91
2017-08-01T05:06:01.190Z,1005.66
2017-08-01T05:07:01.203Z,1005.5
2017-08-01T05:08:01.231Z,1005.3
2017-08-01T05:09:01.254Z,1005.15
2017-08-01T05:10:01.278Z,1005
2017-08-01T05:11:01.394Z,1004.96
2017-08-01T05:12:01.333Z,1004.94
2017-08-01T05:13:01.354Z,1004.81
2017-08-01T05:14:01.380Z,1004.65
2017-08-01T05:15:01.404Z,1004.49
2017-08-01T05:16:01.428Z,1004.39
2017-08-01T05:17:01.452Z,1004.28
2017-08-01T05:18:01.479Z,1004.28
2017-08-01T05:19:01.504Z,1004.31
2017-08-01T05:20:01.527Z,1004.33
2017-08-01T05:21:01.553Z,1004.46
2017-08-01T05:22:01.580Z,1004.55
2017-08-01T05:23:01.604Z,1004.61
2017-08-01T05:24:01.629Z,1004.65
2017-08-01T05:25:01.653Z,1004.64
2017-08-01T05:26:01.677Z,1004.64
2017-08-01T05:27:01.699Z,1004.7
2017-08-01T05:28:01.729Z,1004.56
2017-08-01T05:29:01.751Z,1004.48
2017-08-01T05:30:01.777Z,1004.44
2017-08-01T05:31:01.801Z,1004.4
2017-08-01T05:32:01.825Z,1004.48
2017-08-01T05:33:01.851Z,1004.54
2017-08-01T05:34:01.877Z,1004.64
2017-08-01T05:35:01.901Z,1004.68
2017-08-01T05:36:01.928Z,1004.79
2017-08-01T05:37:01.951Z,1004.9
2017-08-01T05:38:01.977Z,1005.02
2017-08-01T05:39:02.001Z,1005.22
2017-08-01T05:40:02.025Z,1005.4
2017-08-01T05:41:02.050Z,1005.54
2017-08-01T05:42:02.076Z,1005.59
2017-08-01T05:43:02.100Z,1005.36
2017-08-01T05:44:02.125Z,1004.75
2017-08-01T05:45:02.150Z,1004.21
2017-08-01T05:46:02.176Z,1004.27
2017-08-01T05:47:02.203Z,1004.74
2017-08-01T05:48:02.224Z,1005.13
2017-08-01T05:49:02.250Z,1005.18
2017-08-01T05:50:02.442Z,1004.97
2017-08-01T05:51:02.327Z,1004.89
2017-08-01T05:52:02.326Z,1004.83
2017-08-01T05:53:02.348Z,1004.88
2017-08-01T05:54:02.374Z,1004.82
2017-08-01T05:55:02.398Z,1004.69
2017-08-01T05:56:02.423Z,1004.55
2017-08-01T05:57:02.449Z,1004.48
2017-08-01T05:58:02.474Z,1004.3
2017-08-01T05:59:02.498Z,1004.17
2017-08-01T06:00:02.527Z,1004.17
2017-08-01T06:01:02.548Z,1004.25
2017-08-01T06:02:02.573Z,1004.25
2017-08-01T06:03:02.598Z,1004.26
2017-08-01T06:04:02.622Z,1004.28
2017-08-01T06:05:02.647Z,1004.3
2017-08-01T06:06:02.670Z,1004.4
2017-08-01T06:07:02.696Z,1004.46
2017-08-01T06:08:02.721Z,1004.6
2017-08-01T06:09:02.746Z,1004.7
2017-08-01T06:10:02.772Z,1004.83
2017-08-01T06:11:02.796Z,1004.94
2017-08-01T06:12:02.821Z,1004.93
2017-08-01T06:13:02.846Z,1004.91
2017-08-01T06:14:02.870Z,1004.82
2017-08-01T06:15:02.894Z,1004.79
2017-08-01T06:16:02.920Z,1004.71
2017-08-01T06:17:02.944Z,1004.55
2017-08-01T06:18:02.969Z,1004.28
2017-08-01T06:19:02.995Z,1004.23
2017-08-01T06:20:03.018Z,1004.29
2017-08-01T06:21:03.044Z,1004.55
2017-08-01T06:22:03.074Z,1004.73
2017-08-01T06:23:03.093Z,1004.71
2017-08-01T06:24:03.120Z,1004.61
2017-08-01T06:25:03.144Z,1004.48
2017-08-01T06:26:03.167Z,1004.32
2017-08-01T06:27:03.192Z,1004.11
2017-08-01T06:28:03.216Z,1003.89
2017-08-01T06:29:03.241Z,1003.77
2017-08-01T06:30:03.268Z,1003.71
2017-08-01T06:31:03.293Z,1003.68
2017-08-01T06:32:03.319Z,1003.57
2017-08-01T06:33:03.342Z,1003.64
2017-08-01T06:34:03.368Z,1003.64
2017-08-01T06:35:03.389Z,1003.78
2017-08-01T06:36:03.421Z,1003.88
2017-08-01T06:37:03.440Z,1004.02
2017-08-01T06:38:03.465Z,1004.15
2017-08-01T06:39:03.491Z,1004.3
2017-08-01T06:40:03.515Z,1004.42
2017-08-01T06:41:03.540Z,1004.43
2017-08-01T06:42:03.564Z,1004.31
2017-08-01T06:43:03.590Z,1004.26
2017-08-01T06:44:03.613Z,1004.27
2017-08-01T06:45:03.641Z,1004.29
2017-08-01T06:46:03.665Z,1004.3
2017-08-01T06:47:03.690Z,1004.33
2017-08-01T06:48:03.713Z,1004.33
2017-08-01T06:49:03.740Z,1004.35
2017-08-01T06:50:03.768Z,1004.34
2017-08-01T06:51:03.788Z,1004.34
2017-08-01T06:52:03.815Z,1004.35
2017-08-01T06:53:03.842Z,1004.31
2017-08-01T06:54:03.868Z,1004.29
2017-08-01T06:55:03.887Z,1004.27
2017-08-01T06:56:03.913Z,1004.32
2017-08-01T06:57:03.938Z,1004.3
2017-08-01T06:58:03.962Z,1004.27
2017-08-01T06:59:03.988Z,1004.28
2017-08-01T07:00:04.013Z,1004.29
2017-08-01T07:01:04.041Z,1004.22
2017-08-01T07:02:04.062Z,1004.18
2017-08-01T07:03:04.086Z,1004.15
2017-08-01T07:04:04.115Z,1004.1
2017-08-01T07:05:04.143Z,1004.07
2017-08-01T07:06:04.162Z,1004.05
2017-08-01T07:07:04.188Z,1004.11
2017-08-01T07:08:04.213Z,1004.16
2017-08-01T07:09:04.238Z,1004.18
2017-08-01T07:10:04.264Z,1004.19
2017-08-01T07:11:04.287Z,1004.21
2017-08-01T07:12:04.316Z,1004.18
2017-08-01T07:13:04.337Z,1004.17
2017-08-01T07:14:04.366Z,1004.24
2017-08-01T07:15:04.392Z,1004.26
2017-08-01T07:16:04.415Z,1004.29
2017-08-01T07:17:04.438Z,1004.3
2017-08-01T07:18:04.465Z,1004.34
2017-08-01T07:19:04.488Z,1004.4
2017-08-01T07:20:04.514Z,1004.41
2017-08-01T07:21:04.542Z,1004.35
2017-08-01T07:22:04.566Z,1004.31
2017-08-01T07:23:04.589Z,1004.34
2017-08-01T07:24:04.616Z,1004.28
2017-08-01T07:25:04.642Z,1004.3
2017-08-01T07:26:04.667Z,1004.32
2017-08-01T07:27:04.692Z,1004.36
2017-08-01T07:28:04.714Z,1004.38
2017-08-01T07:29:04.742Z,1004.36
2017-08-01T07:30:04.767Z,1004.35
2017-08-01T07:31:04.789Z,1004.3
2017-08-01T07:32:04.818Z,1004.25
2017-08-01T07:33:04.842Z,1004.25
2017-08-01T07:34:04.868Z,1004.28
2017-08-01T07:35:04.892Z,1004.28
2017-08-01T07:36:04.918Z,1004.22
2017-08-01T07:37:04.942Z,1004.24
2017-08-01T07:38:04.968Z,1004.23
2017-08-01T07:39:04.993Z,1004.21
2017-08-01T07:40:05.018Z,1004.17
2017-08-01T07:41:05.044Z,1004.14
2017-08-01T07:42:05.070Z,1004.11
2017-08-01T07:43:05.094Z,1004.06
2017-08-01T07:44:05.120Z,1004.02
2017-08-01T07:45:05.147Z,1004.04
2017-08-01T07:46:05.174Z,1004.03
2017-08-01T07:47:05.195Z,1004.01
2017-08-01T07:48:05.223Z,1004.01
2017-08-01T07:49:05.246Z,1003.99
2017-08-01T07:50:05.272Z,1003.97
2017-08-01T07:51:05.298Z,1003.99
2017-08-01T07:52:05.322Z,1003.99
2017-08-01T07:53:05.348Z,1004.05
2017-08-01T07:54:05.381Z,1004.07
2017-08-01T07:55:05.400Z,1004.1
2017-08-01T07:56:05.427Z,1004.14
2017-08-01T07:57:05.452Z,1004.13
2017-08-01T07:58:05.475Z,1004.18
2017-08-01T07:59:05.502Z,1004.12
2017-08-01T08:00:05.527Z,1004.14
2017-08-01T08:01:05.553Z,1004.07
2017-08-01T08:02:05.578Z,1004.11
2017-08-01T08:03:05.605Z,1004.08
2017-08-01T08:04:05.629Z,1004.05
2017-08-01T08:05:05.656Z,1004.07
2017-08-01T08:06:05.683Z,1004
2017-08-01T08:07:05.706Z,1004.04
2017-08-01T08:08:05.731Z,1004.03
2017-08-01T08:09:05.760Z,1004.08
2017-08-01T08:10:05.786Z,1004.04
2017-08-01T08:11:05.811Z,1003.98
2017-08-01T08:12:05.837Z,1003.98
2017-08-01T08:13:05.863Z,1003.94
2017-08-01T08:14:05.891Z,1003.89
2017-08-01T08:15:05.913Z,1003.85
2017-08-01T08:16:05.940Z,1003.78
2017-08-01T08:17:05.968Z,1003.74
2017-08-01T08:18:05.993Z,1003.69
2017-08-01T08:19:06.019Z,1003.66
2017-08-01T08:20:06.049Z,1003.66
2017-08-01T08:21:06.072Z,1003.68
2017-08-01T08:22:06.098Z,1003.72
2017-08-01T08:23:06.122Z,1003.72
2017-08-01T08:24:06.149Z,1003.68
2017-08-01T08:25:06.180Z,1003.76
2017-08-01T08:26:06.200Z,1003.76
2017-08-01T08:27:06.227Z,1003.8
2017-08-01T08:28:06.255Z,1003.75
2017-08-01T08:29:06.283Z,1003.76
2017-08-01T08:30:06.306Z,1003.78
2017-08-01T08:31:06.334Z,1003.79
2017-08-01T08:32:06.360Z,1003.78
2017-08-01T08:33:06.385Z,1003.87
2017-08-01T08:34:06.411Z,1003.86
2017-08-01T08:35:06.438Z,1003.84
2017-08-01T08:36:06.466Z,1003.76
2017-08-01T08:37:06.491Z,1003.74
2017-08-01T08:38:06.518Z,1003.68
2017-08-01T08:39:06.545Z,1003.68
2017-08-01T08:40:06.572Z,1003.67
2017-08-01T08:41:06.596Z,1003.68
2017-08-01T08:42:06.625Z,1003.67
2017-08-01T08:43:06.652Z,1003.62
2017-08-01T08:44:06.678Z,1003.61
2017-08-01T08:45:06.704Z,1003.66
2017-08-01T08:46:06.730Z,1003.6
2017-08-01T08:47:06.758Z,1003.6
2017-08-01T08:48:06.786Z,1003.56
2017-08-01T08:49:06.812Z,1003.56
2017-08-01T08:50:06.841Z,1003.58
2017-08-01T08:51:06.868Z,1003.53
2017-08-01T08:52:06.892Z,1003.57
2017-08-01T08:53:06.921Z,1003.62
2017-08-01T08:54:06.947Z,1003.76
2017-08-01T08:55:07.001Z,1003.88
2017-08-01T08:56:07.003Z,1004.02
2017-08-01T08:57:07.030Z,1004.07
2017-08-01T08:58:07.056Z,1004.13
2017-08-01T08:59:07.082Z,1004.16
2017-08-01T09:00:07.112Z,1004.13
2017-08-01T09:01:07.139Z,1004.08
2017-08-01T09:02:07.165Z,1004.02
2017-08-01T09:03:07.192Z,1003.92
2017-08-01T09:04:07.218Z,1003.89
2017-08-01T09:05:07.246Z,1003.95
2017-08-01T09:06:07.273Z,1003.97
2017-08-01T09:07:07.300Z,1003.92
2017-08-01T09:08:07.333Z,1003.97
2017-08-01T09:09:07.355Z,1003.94
2017-08-01T09:10:07.384Z,1003.97
2017-08-01T09:11:07.410Z,1003.96
2017-08-01T09:12:07.436Z,1004.01
2017-08-01T09:13:07.467Z,1004.08
2017-08-01T09:14:07.495Z,1004.2
2017-08-01T09:15:07.522Z,1004.3
2017-08-01T09:16:07.550Z,1004.28
2017-08-01T09:17:07.580Z,1004.3
2017-08-01T09:18:07.616Z,1004.27
2017-08-01T09:19:07.631Z,1004.25
2017-08-01T09:20:07.660Z,1004.25
2017-08-01T09:21:07.684Z,1004.19
2017-08-01T09:22:07.714Z,1004.2
2017-08-01T09:23:07.744Z,1004.16
2017-08-01T09:24:07.772Z,1004.21
2017-08-01T09:25:07.800Z,1004.23
2017-08-01T09:26:07.860Z,1004.29
2017-08-01T09:27:08.055Z,1004.26
2017-08-01T09:28:07.888Z,1004.32
2017-08-01T09:29:07.912Z,1004.25
2017-08-01T09:30:07.938Z,1004.31
2017-08-01T09:31:07.967Z,1004.25
2017-08-01T09:32:08.095Z,1004.27
2017-08-01T09:33:08.120Z,1004.27
2017-08-01T09:34:08.120Z,1004.27
2017-08-01T09:35:08.078Z,1004.18
2017-08-01T09:36:08.105Z,1004.22
2017-08-01T09:37:08.229Z,1004.2
2017-08-01T09:38:08.257Z,1004.24
2017-08-01T09:39:08.223Z,1004.19
2017-08-01T09:40:08.281Z,1004.12
2017-08-01T09:41:08.244Z,1004.15
2017-08-01T09:42:08.276Z,1004.12
2017-08-01T09:43:08.301Z,1004.09
2017-08-01T09:44:08.332Z,1004.04
2017-08-01T09:45:08.360Z,1004.08
2017-08-01T09:46:08.389Z,1004.07
2017-08-01T09:47:08.416Z,1004.12
2017-08-01T09:48:08.446Z,1004.11
2017-08-01T09:49:08.474Z,1004.06
2017-08-01T09:50:08.503Z,1004.08
2017-08-01T09:51:08.531Z,1003.9
2017-08-01T09:52:08.561Z,1003.83
2017-08-01T09:53:08.589Z,1003.82
2017-08-01T09:54:08.616Z,1003.7
2017-08-01T09:55:08.646Z,1003.73
2017-08-01T09:56:08.674Z,1003.6
2017-08-01T09:57:08.703Z,1003.48
2017-08-01T09:58:08.731Z,1003.48
2017-08-01T09:59:08.760Z,1003.42
2017-08-01T10:00:08.790Z,1003.41
2017-08-01T10:01:08.817Z,1003.39
2017-08-01T10:02:08.847Z,1003.44
2017-08-01T10:03:08.876Z,1003.49
2017-08-01T10:04:08.907Z,1003.49
2017-08-01T10:05:08.934Z,1003.5
2017-08-01T10:06:08.965Z,1003.5
2017-08-01T10:07:08.992Z,1003.57
2017-08-01T10:08:09.021Z,1003.58
2017-08-01T10:09:09.052Z,1003.59
2017-08-01T10:10:09.080Z,1003.64
2017-08-01T10:11:09.109Z,1003.67
2017-08-01T10:12:09.138Z,1003.68
2017-08-01T10:13:09.167Z,1003.69
2017-08-01T10:14:09.197Z,1003.66
2017-08-01T10:15:09.228Z,1003.65
2017-08-01T10:16:09.256Z,1003.6
2017-08-01T10:17:09.286Z,1003.7
2017-08-01T10:18:09.321Z,1003.68
2017-08-01T10:19:09.347Z,1003.73
2017-08-01T10:20:09.377Z,1003.75
2017-08-01T10:21:09.405Z,1003.74
2017-08-01T10:22:09.437Z,1003.74
2017-08-01T10:23:09.462Z,1003.83
2017-08-01T10:24:09.496Z,1003.85
2017-08-01T10:25:09.523Z,1003.84
2017-08-01T10:26:09.558Z,1003.82
2017-08-01T10:27:09.582Z,1003.81
2017-08-01T10:28:09.612Z,1003.86
2017-08-01T10:29:09.654Z,1003.85
2017-08-01T10:30:09.770Z,1003.86
2017-08-01T10:31:09.797Z,1003.82
2017-08-01T10:32:09.738Z,1003.84
2017-08-01T10:33:09.768Z,1003.88
2017-08-01T10:34:09.795Z,1003.93
2017-08-01T10:35:09.825Z,1003.89
2017-08-01T10:36:09.856Z,1003.86
2017-08-01T10:37:09.887Z,1003.88
2017-08-01T10:38:09.916Z,1003.86
2017-08-01T10:39:09.948Z,1003.83
2017-08-01T10:40:09.978Z,1003.79
2017-08-01T10:41:10.008Z,1003.82
2017-08-01T10:42:10.037Z,1003.78
2017-08-01T10:43:10.071Z,1003.76
2017-08-01T10:44:10.099Z,1003.66
2017-08-01T10:45:10.130Z,1003.62
2017-08-01T10:46:10.160Z,1003.62
2017-08-01T10:47:10.192Z,1003.57
2017-08-01T10:48:10.223Z,1003.54
2017-08-01T10:49:10.253Z,1003.54
2017-08-01T10:50:10.286Z,1003.52
2017-08-01T10:51:10.316Z,1003.55
2017-08-01T10:52:10.344Z,1003.52
2017-08-01T10:53:10.377Z,1003.59
2017-08-01T10:54:10.408Z,1003.64
2017-08-01T10:55:10.439Z,1003.61
2017-08-01T10:56:10.473Z,1003.61
2017-08-01T10:57:10.504Z,1003.69
2017-08-01T10:58:10.532Z,1003.79
2017-08-01T10:59:10.562Z,1003.68
2017-08-01T11:00:10.597Z,1003.72
2017-08-01T11:01:10.625Z,1003.65
2017-08-01T11:02:10.660Z,1003.71
2017-08-01T11:03:10.689Z,1003.69
2017-08-01T11:04:10.722Z,1003.73
2017-08-01T11:05:10.752Z,1003.69
2017-08-01T11:06:10.783Z,1003.66
2017-08-01T11:07:10.817Z,1003.72
2017-08-01T11:08:10.849Z,1003.68
2017-08-01T11:09:10.880Z,1003.8
2017-08-01T11:10:10.912Z,1003.84
2017-08-01T11:11:10.990Z,1003.86
2017-08-01T11:12:10.976Z,1003.92
2017-08-01T11:13:11.007Z,1003.95
2017-08-01T11:14:11.037Z,1003.95
2017-08-01T11:15:11.075Z,1003.95
2017-08-01T11:16:11.104Z,1003.98
2017-08-01T11:17:11.135Z,1003.99
2017-08-01T11:18:11.166Z,1003.97
2017-08-01T11:19:11.202Z,1003.91
2017-08-01T11:20:11.233Z,1003.88
2017-08-01T11:21:11.264Z,1003.84
2017-08-01T11:22:11.297Z,1003.8
2017-08-01T11:23:11.325Z,1003.81
2017-08-01T11:24:11.360Z,1003.8
2017-08-01T11:25:11.392Z,1003.8
2017-08-01T11:26:11.427Z,1003.83
2017-08-01T11:27:11.463Z,1003.89
2017-08-01T11:28:11.490Z,1003.95
2017-08-01T11:29:11.521Z,1003.97
2017-08-01T11:30:11.556Z,1003.95
2017-08-01T11:31:11.590Z,1003.93
2017-08-01T11:32:11.620Z,1003.83
2017-08-01T11:33:11.670Z,1003.78
2017-08-01T11:34:11.685Z,1003.77
2017-08-01T11:35:11.717Z,1003.75
2017-08-01T11:36:11.749Z,1003.73
2017-08-01T11:37:11.782Z,1003.67
2017-08-01T11:38:11.817Z,1003.64
2017-08-01T11:39:11.856Z,1003.64
2017-08-01T11:40:11.882Z,1003.58
2017-08-01T11:41:11.915Z,1003.59
2017-08-01T11:42:11.951Z,1003.56
2017-08-01T11:43:11.980Z,1003.54
2017-08-01T11:44:12.014Z,1003.57
2017-08-01T11:45:12.051Z,1003.58
2017-08-01T11:46:12.082Z,1003.55
2017-08-01T11:47:12.113Z,1003.54
2017-08-01T11:48:12.146Z,1003.59
2017-08-01T11:49:12.189Z,1003.54
2017-08-01T11:50:12.216Z,1003.55
2017-08-01T11:51:12.246Z,1003.57
2017-08-01T11:52:12.280Z,1003.53
2017-08-01T11:53:12.316Z,1003.51
2017-08-01T11:54:12.351Z,1003.48
2017-08-01T11:55:12.381Z,1003.44
2017-08-01T11:56:12.416Z,1003.39
2017-08-01T11:57:12.448Z,1003.39
2017-08-01T11:58:12.482Z,1003.38
2017-08-01T11:59:12.517Z,1003.35
2017-08-01T12:00:12.551Z,1003.34
2017-08-01T12:01:12.584Z,1003.27
2017-08-01T12:02:12.615Z,1003.23
2017-08-01T12:03:12.651Z,1003.29
2017-08-01T12:04:12.684Z,1003.27
2017-08-01T12:05:12.720Z,1003.27
2017-08-01T12:06:12.774Z,1003.23
2017-08-01T12:07:12.790Z,1003.24
2017-08-01T12:08:12.822Z,1003.21
2017-08-01T12:09:12.858Z,1003.2